sensor_id;sensor_type;location;lat;lon;timestamp;temperature;humidity
30063;DHT22;16889;67.864;24.990;2023-04-08T00:03:53;0.00;99.90
30063;DHT22;16889;67.864;24.990;2023-04-08T00:08:39;-0.10;99.90
30063;DHT22;16889;67.864;24.990;2023-04-08T00:13:25;-0.10;99.90
30063;DHT22;16889;67.864;24.990;2023-04-08T00:18:13;-0.10;99.90
30063;DHT22;16889;67.864;24.990;2023-04-08T00:23:00;-0.20;99.90
30063;DHT22;16889;67.864;24.990;2023-04-08T00:27:46;-0.20;99.90
30063;DHT22;16889;67.864;24.990;2023-04-08T00:32:32;-0.20;99.90
30063;DHT22;16889;67.864;24.990;2023-04-08T00:37:18;-0.20;99.90
30063;DHT22;16889;67.864;24.990;2023-04-08T00:42:04;-0.30;99.90
30063;DHT22;16889;67.864;24.990;2023-04-08T00:46:50;-0.40;99.90
30063;DHT22;16889;67.864;24.990;2023-04-08T00:51:36;-0.50;99.90
30063;DHT22;16889;67.864;24.990;2023-04-08T00:56:23;-0.50;99.90
30063;DHT22;16889;67.864;24.990;2023-04-08T01:01:14;-0.50;99.90
30063;DHT22;16889;67.864;24.990;2023-04-08T01:06:22;-0.50;99.90
30063;DHT22;16889;67.864;24.990;2023-04-08T01:11:14;-0.50;99.90
30063;DHT22;16889;67.864;24.990;2023-04-08T01:16:00;-0.50;99.90
30063;DHT22;16889;67.864;24.990;2023-04-08T01:20:47;-0.60;99.90
30063;DHT22;16889;67.864;24.990;2023-04-08T01:25:35;-0.60;99.90
30063;DHT22;16889;67.864;24.990;2023-04-08T01:30:24;-0.60;99.90
30063;DHT22;16889;67.864;24.990;2023-04-08T01:35:11;-0.70;99.90
30063;DHT22;16889;67.864;24.990;2023-04-08T01:39:58;-0.70;99.90
30063;DHT22;16889;67.864;24.990;2023-04-08T01:44:46;-0.80;99.90
30063;DHT22;16889;67.864;24.990;2023-04-08T01:49:33;-0.80;99.90
30063;DHT22;16889;67.864;24.990;2023-04-08T01:54:20;-0.80;99.90
30063;DHT22;16889;67.864;24.990;2023-04-08T01:59:09;-0.90;99.90
30063;DHT22;16889;67.864;24.990;2023-04-08T02:03:57;-1.00;99.90
30063;DHT22;16889;67.864;24.990;2023-04-08T02:08:44;-1.10;99.90
30063;DHT22;16889;67.864;24.990;2023-04-08T02:13:31;-1.30;99.90
30063;DHT22;16889;67.864;24.990;2023-04-08T02:18:24;-1.70;99.90
30063;DHT22;16889;67.864;24.990;2023-04-08T02:23:23;-1.80;99.90
30063;DHT22;16889;67.864;24.990;2023-04-08T02:28:10;-2.00;99.90
30063;DHT22;16889;67.864;24.990;2023-04-08T02:32:57;-2.10;99.90
30063;DHT22;16889;67.864;24.990;2023-04-08T02:37:45;-2.20;99.90
30063;DHT22;16889;67.864;24.990;2023-04-08T02:42:35;-2.20;99.90
30063;DHT22;16889;67.864;24.990;2023-04-08T02:47:20;-2.20;99.90
30063;DHT22;16889;67.864;24.990;2023-04-08T02:52:06;-2.30;99.90
30063;DHT22;16889;67.864;24.990;2023-04-08T02:56:52;-2.30;99.90
30063;DHT22;16889;67.864;24.990;2023-04-08T03:01:38;-2.30;99.90
30063;DHT22;16889;67.864;24.990;2023-04-08T03:06:25;-2.20;99.90
30063;DHT22;16889;67.864;24.990;2023-04-08T03:11:11;-2.30;99.90
30063;DHT22;16889;67.864;24.990;2023-04-08T03:15:57;-2.30;99.90
30063;DHT22;16889;67.864;24.990;2023-04-08T03:20:43;-2.30;99.90
30063;DHT22;16889;67.864;24.990;2023-04-08T03:25:29;-2.40;99.90
30063;DHT22;16889;67.864;24.990;2023-04-08T03:30:16;-2.30;99.90
30063;DHT22;16889;67.864;24.990;2023-04-08T03:35:03;-2.20;99.90
30063;DHT22;16889;67.864;24.990;2023-04-08T03:39:50;-2.10;99.90
30063;DHT22;16889;67.864;24.990;2023-04-08T03:44:36;-2.00;99.90
30063;DHT22;16889;67.864;24.990;2023-04-08T03:49:22;-2.20;99.90
30063;DHT22;16889;67.864;24.990;2023-04-08T03:54:08;-2.10;99.90
30063;DHT22;16889;67.864;24.990;2023-04-08T03:58:54;-2.00;99.90
30063;DHT22;16889;67.864;24.990;2023-04-08T04:03:40;-1.90;99.90
30063;DHT22;16889;67.864;24.990;2023-04-08T04:08:26;-1.80;99.90
30063;DHT22;16889;67.864;24.990;2023-04-08T04:13:11;-1.60;99.90
30063;DHT22;16889;67.864;24.990;2023-04-08T04:17:58;-1.60;99.90
30063;DHT22;16889;67.864;24.990;2023-04-08T04:22:44;-1.30;99.90
30063;DHT22;16889;67.864;24.990;2023-04-08T04:27:30;-1.10;99.90
30063;DHT22;16889;67.864;24.990;2023-04-08T04:32:16;-0.80;99.90
30063;DHT22;16889;67.864;24.990;2023-04-08T04:37:02;-0.80;99.90
30063;DHT22;16889;67.864;24.990;2023-04-08T04:41:48;-0.80;99.90
30063;DHT22;16889;67.864;24.990;2023-04-08T04:46:34;-0.60;99.90
30063;DHT22;16889;67.864;24.990;2023-04-08T04:51:20;-0.20;99.90
30063;DHT22;16889;67.864;24.990;2023-04-08T04:56:06;0.00;99.90
30063;DHT22;16889;67.864;24.990;2023-04-08T05:00:52;0.20;99.90
30063;DHT22;16889;67.864;24.990;2023-04-08T05:05:38;0.30;99.90
30063;DHT22;16889;67.864;24.990;2023-04-08T05:10:25;0.50;99.90
30063;DHT22;16889;67.864;24.990;2023-04-08T05:15:11;1.00;99.90
30063;DHT22;16889;67.864;24.990;2023-04-08T05:19:57;1.10;99.90
30063;DHT22;16889;67.864;24.990;2023-04-08T05:24:43;1.40;99.90
30063;DHT22;16889;67.864;24.990;2023-04-08T05:29:29;1.70;99.90
30063;DHT22;16889;67.864;24.990;2023-04-08T05:34:15;2.20;99.90
30063;DHT22;16889;67.864;24.990;2023-04-08T05:39:07;2.60;99.90
30063;DHT22;16889;67.864;24.990;2023-04-08T05:43:53;2.70;99.90
30063;DHT22;16889;67.864;24.990;2023-04-08T05:48:39;3.20;99.90
30063;DHT22;16889;67.864;24.990;2023-04-08T05:53:24;4.00;99.90
30063;DHT22;16889;67.864;24.990;2023-04-08T05:58:11;4.30;99.90
30063;DHT22;16889;67.864;24.990;2023-04-08T06:02:57;4.40;99.90
30063;DHT22;16889;67.864;24.990;2023-04-08T06:07:42;4.10;99.90
30063;DHT22;16889;67.864;24.990;2023-04-08T06:12:28;4.20;99.90
30063;DHT22;16889;67.864;24.990;2023-04-08T06:17:14;4.90;99.90
30063;DHT22;16889;67.864;24.990;2023-04-08T06:22:00;5.00;99.90
30063;DHT22;16889;67.864;24.990;2023-04-08T06:26:46;5.30;99.90
30063;DHT22;16889;67.864;24.990;2023-04-08T06:31:32;5.30;99.90
30063;DHT22;16889;67.864;24.990;2023-04-08T06:36:18;5.10;99.90
30063;DHT22;16889;67.864;24.990;2023-04-08T06:41:05;4.90;99.90
30063;DHT22;16889;67.864;24.990;2023-04-08T06:45:52;4.80;99.90
30063;DHT22;16889;67.864;24.990;2023-04-08T06:50:38;4.90;99.90
30063;DHT22;16889;67.864;24.990;2023-04-08T06:55:24;4.80;99.90
30063;DHT22;16889;67.864;24.990;2023-04-08T07:00:10;4.80;99.90
30063;DHT22;16889;67.864;24.990;2023-04-08T07:04:56;4.70;99.90
30063;DHT22;16889;67.864;24.990;2023-04-08T07:09:42;4.70;99.90
30063;DHT22;16889;67.864;24.990;2023-04-08T07:14:30;4.70;99.90
30063;DHT22;16889;67.864;24.990;2023-04-08T07:19:16;4.70;99.90
30063;DHT22;16889;67.864;24.990;2023-04-08T07:24:02;4.60;99.90
30063;DHT22;16889;67.864;24.990;2023-04-08T07:28:48;5.50;99.90
30063;DHT22;16889;67.864;24.990;2023-04-08T07:33:34;6.00;99.90
30063;DHT22;16889;67.864;24.990;2023-04-08T07:38:20;7.40;98.10
30063;DHT22;16889;67.864;24.990;2023-04-08T07:43:05;7.80;96.60
30063;DHT22;16889;67.864;24.990;2023-04-08T07:47:53;7.50;94.40
30063;DHT22;16889;67.864;24.990;2023-04-08T07:52:39;6.80;95.90
30063;DHT22;16889;67.864;24.990;2023-04-08T07:57:25;6.50;97.30
30063;DHT22;16889;67.864;24.990;2023-04-08T08:02:11;6.80;97.30
30063;DHT22;16889;67.864;24.990;2023-04-08T08:06:57;7.20;97.30
30063;DHT22;16889;67.864;24.990;2023-04-08T08:11:43;7.70;95.90
30063;DHT22;16889;67.864;24.990;2023-04-08T08:16:30;8.50;93.50
30063;DHT22;16889;67.864;24.990;2023-04-08T08:21:16;9.20;91.00
30063;DHT22;16889;67.864;24.990;2023-04-08T08:26:04;10.90;83.90
30063;DHT22;16889;67.864;24.990;2023-04-08T08:30:50;12.70;72.00
30063;DHT22;16889;67.864;24.990;2023-04-08T08:35:37;12.60;65.30
30063;DHT22;16889;67.864;24.990;2023-04-08T08:40:23;12.40;64.50
30063;DHT22;16889;67.864;24.990;2023-04-08T08:45:09;10.80;68.80
30063;DHT22;16889;67.864;24.990;2023-04-08T08:49:55;9.60;73.50
30063;DHT22;16889;67.864;24.990;2023-04-08T08:54:41;9.10;78.40
30063;DHT22;16889;67.864;24.990;2023-04-08T08:59:27;8.70;78.40
30063;DHT22;16889;67.864;24.990;2023-04-08T09:04:15;8.60;81.30
30063;DHT22;16889;67.864;24.990;2023-04-08T09:09:03;7.90;84.70
30063;DHT22;16889;67.864;24.990;2023-04-08T09:13:56;8.10;84.30
30063;DHT22;16889;67.864;24.990;2023-04-08T09:18:43;8.20;84.30
30063;DHT22;16889;67.864;24.990;2023-04-08T09:23:36;9.50;81.60
30063;DHT22;16889;67.864;24.990;2023-04-08T09:28:23;9.70;76.50
30063;DHT22;16889;67.864;24.990;2023-04-08T09:33:09;8.80;78.80
30063;DHT22;16889;67.864;24.990;2023-04-08T09:37:56;7.60;88.00
30063;DHT22;16889;67.864;24.990;2023-04-08T09:42:47;7.10;90.00
30063;DHT22;16889;67.864;24.990;2023-04-08T09:53:01;7.80;90.30
30063;DHT22;16889;67.864;24.990;2023-04-08T09:58:03;7.90;87.60
30063;DHT22;16889;67.864;24.990;2023-04-08T10:03:09;8.70;87.00
30063;DHT22;16889;67.864;24.990;2023-04-08T10:07:59;10.10;77.00
30063;DHT22;16889;67.864;24.990;2023-04-08T10:12:45;12.20;69.50
30063;DHT22;16889;67.864;24.990;2023-04-08T10:17:31;15.30;58.10
30063;DHT22;16889;67.864;24.990;2023-04-08T10:27:45;12.30;61.30
30063;DHT22;16889;67.864;24.990;2023-04-08T10:32:39;12.30;61.60
30063;DHT22;16889;67.864;24.990;2023-04-08T10:37:26;12.20;61.10
30063;DHT22;16889;67.864;24.990;2023-04-08T10:42:12;11.70;63.90
30063;DHT22;16889;67.864;24.990;2023-04-08T10:46:58;11.30;62.50
30063;DHT22;16889;67.864;24.990;2023-04-08T10:51:45;11.10;66.50
30063;DHT22;16889;67.864;24.990;2023-04-08T10:56:31;10.40;67.20
30063;DHT22;16889;67.864;24.990;2023-04-08T11:01:18;11.20;67.40
30063;DHT22;16889;67.864;24.990;2023-04-08T11:06:05;12.30;62.50
30063;DHT22;16889;67.864;24.990;2023-04-08T11:10:52;11.30;62.60
30063;DHT22;16889;67.864;24.990;2023-04-08T11:15:37;12.30;62.70
30063;DHT22;16889;67.864;24.990;2023-04-08T11:20:24;11.90;60.80
30063;DHT22;16889;67.864;24.990;2023-04-08T11:25:10;11.70;61.00
30063;DHT22;16889;67.864;24.990;2023-04-08T11:29:56;11.70;63.00
30063;DHT22;16889;67.864;24.990;2023-04-08T11:34:43;11.80;63.00
30063;DHT22;16889;67.864;24.990;2023-04-08T11:39:29;10.90;64.70
30063;DHT22;16889;67.864;24.990;2023-04-08T11:44:15;10.00;70.30
30063;DHT22;16889;67.864;24.990;2023-04-08T11:49:06;9.40;73.60
30063;DHT22;16889;67.864;24.990;2023-04-08T11:53:52;8.60;77.60
30063;DHT22;16889;67.864;24.990;2023-04-08T11:58:38;8.30;79.60
30063;DHT22;16889;67.864;24.990;2023-04-08T12:03:24;8.20;81.90
30063;DHT22;16889;67.864;24.990;2023-04-08T12:08:10;8.30;81.50
30063;DHT22;16889;67.864;24.990;2023-04-08T12:12:56;7.90;83.10
30063;DHT22;16889;67.864;24.990;2023-04-08T12:17:43;8.10;83.90
30063;DHT22;16889;67.864;24.990;2023-04-08T12:22:29;8.40;80.90
30063;DHT22;16889;67.864;24.990;2023-04-08T12:27:15;9.20;79.90
30063;DHT22;16889;67.864;24.990;2023-04-08T12:32:01;9.50;78.20
30063;DHT22;16889;67.864;24.990;2023-04-08T12:36:50;9.40;78.10
30063;DHT22;16889;67.864;24.990;2023-04-08T12:41:37;8.80;80.00
30063;DHT22;16889;67.864;24.990;2023-04-08T12:46:23;8.80;80.80
30063;DHT22;16889;67.864;24.990;2023-04-08T12:51:09;8.80;83.00
30063;DHT22;16889;67.864;24.990;2023-04-08T12:55:56;8.50;84.50
30063;DHT22;16889;67.864;24.990;2023-04-08T13:00:42;8.70;84.20
30063;DHT22;16889;67.864;24.990;2023-04-08T13:05:31;8.40;85.70
30063;DHT22;16889;67.864;24.990;2023-04-08T13:10:18;8.50;86.60
30063;DHT22;16889;67.864;24.990;2023-04-08T13:15:06;8.60;85.70
30063;DHT22;16889;67.864;24.990;2023-04-08T13:19:52;8.40;83.90
30063;DHT22;16889;67.864;24.990;2023-04-08T13:24:38;8.40;85.90
30063;DHT22;16889;67.864;24.990;2023-04-08T13:29:26;8.20;86.60
30063;DHT22;16889;67.864;24.990;2023-04-08T13:34:13;7.20;90.30
30063;DHT22;16889;67.864;24.990;2023-04-08T13:38:59;7.00;91.70
30063;DHT22;16889;67.864;24.990;2023-04-08T13:43:44;6.90;92.40
30063;DHT22;16889;67.864;24.990;2023-04-08T13:48:30;6.70;93.40
30063;DHT22;16889;67.864;24.990;2023-04-08T13:53:16;7.00;92.60
30063;DHT22;16889;67.864;24.990;2023-04-08T13:58:02;7.10;93.10
30063;DHT22;16889;67.864;24.990;2023-04-08T14:02:48;7.00;93.80
30063;DHT22;16889;67.864;24.990;2023-04-08T14:07:36;7.30;93.40
30063;DHT22;16889;67.864;24.990;2023-04-08T14:12:22;7.70;91.30
30063;DHT22;16889;67.864;24.990;2023-04-08T14:17:09;7.90;90.70
30063;DHT22;16889;67.864;24.990;2023-04-08T14:21:56;8.10;90.10
30063;DHT22;16889;67.864;24.990;2023-04-08T14:26:42;8.20;90.30
30063;DHT22;16889;67.864;24.990;2023-04-08T14:31:30;8.20;91.00
30063;DHT22;16889;67.864;24.990;2023-04-08T14:36:17;7.80;91.10
30063;DHT22;16889;67.864;24.990;2023-04-08T14:41:03;7.90;91.50
30063;DHT22;16889;67.864;24.990;2023-04-08T14:45:50;7.40;92.70
30063;DHT22;16889;67.864;24.990;2023-04-08T14:50:36;7.20;93.70
30063;DHT22;16889;67.864;24.990;2023-04-08T14:55:22;7.30;93.30
30063;DHT22;16889;67.864;24.990;2023-04-08T15:00:10;7.30;93.70
30063;DHT22;16889;67.864;24.990;2023-04-08T15:04:56;7.50;93.40
30063;DHT22;16889;67.864;24.990;2023-04-08T15:09:42;6.90;94.20
30063;DHT22;16889;67.864;24.990;2023-04-08T15:14:28;6.70;94.70
30063;DHT22;16889;67.864;24.990;2023-04-08T15:19:15;6.50;95.70
30063;DHT22;16889;67.864;24.990;2023-04-08T15:24:03;6.70;95.90
30063;DHT22;16889;67.864;24.990;2023-04-08T15:28:49;6.60;96.20
30063;DHT22;16889;67.864;24.990;2023-04-08T15:33:36;6.60;96.50
30063;DHT22;16889;67.864;24.990;2023-04-08T15:38:26;6.40;96.90
30063;DHT22;16889;67.864;24.990;2023-04-08T15:43:12;6.20;97.60
30063;DHT22;16889;67.864;24.990;2023-04-08T15:47:58;6.10;98.20
30063;DHT22;16889;67.864;24.990;2023-04-08T15:52:45;6.00;98.10
30063;DHT22;16889;67.864;24.990;2023-04-08T15:57:31;5.80;99.50
30063;DHT22;16889;67.864;24.990;2023-04-08T16:02:18;5.70;99.90
30063;DHT22;16889;67.864;24.990;2023-04-08T16:07:04;5.50;99.90
30063;DHT22;16889;67.864;24.990;2023-04-08T16:11:50;5.10;99.90
30063;DHT22;16889;67.864;24.990;2023-04-08T16:16:36;5.00;99.90
30063;DHT22;16889;67.864;24.990;2023-04-08T16:21:23;5.10;99.90
30063;DHT22;16889;67.864;24.990;2023-04-08T16:26:09;5.30;99.90
30063;DHT22;16889;67.864;24.990;2023-04-08T16:30:55;5.30;99.90
30063;DHT22;16889;67.864;24.990;2023-04-08T16:35:41;5.20;99.90
30063;DHT22;16889;67.864;24.990;2023-04-08T16:40:27;5.10;99.90
30063;DHT22;16889;67.864;24.990;2023-04-08T16:45:17;4.90;99.90
30063;DHT22;16889;67.864;24.990;2023-04-08T16:50:05;4.80;99.90
30063;DHT22;16889;67.864;24.990;2023-04-08T16:54:52;4.80;99.90
30063;DHT22;16889;67.864;24.990;2023-04-08T16:59:39;4.80;99.90
30063;DHT22;16889;67.864;24.990;2023-04-08T17:04:25;4.40;99.90
30063;DHT22;16889;67.864;24.990;2023-04-08T17:09:11;4.20;99.90
30063;DHT22;16889;67.864;24.990;2023-04-08T17:13:57;4.00;99.90
30063;DHT22;16889;67.864;24.990;2023-04-08T17:18:44;4.10;99.90
30063;DHT22;16889;67.864;24.990;2023-04-08T17:23:31;4.10;99.90
30063;DHT22;16889;67.864;24.990;2023-04-08T17:28:17;4.10;99.90
30063;DHT22;16889;67.864;24.990;2023-04-08T17:33:03;3.90;99.90
30063;DHT22;16889;67.864;24.990;2023-04-08T17:37:49;3.80;99.90
30063;DHT22;16889;67.864;24.990;2023-04-08T17:42:35;3.60;99.90
30063;DHT22;16889;67.864;24.990;2023-04-08T17:47:21;3.60;99.90
30063;DHT22;16889;67.864;24.990;2023-04-08T17:52:07;3.40;99.90
30063;DHT22;16889;67.864;24.990;2023-04-08T17:56:53;3.30;99.90
30063;DHT22;16889;67.864;24.990;2023-04-08T18:01:39;3.10;99.90
30063;DHT22;16889;67.864;24.990;2023-04-08T18:06:25;3.00;99.90
30063;DHT22;16889;67.864;24.990;2023-04-08T18:11:13;2.80;99.90
30063;DHT22;16889;67.864;24.990;2023-04-08T18:15:59;2.50;99.90
30063;DHT22;16889;67.864;24.990;2023-04-08T18:20:45;2.30;99.90
30063;DHT22;16889;67.864;24.990;2023-04-08T18:25:31;2.20;99.90
30063;DHT22;16889;67.864;24.990;2023-04-08T18:30:19;1.80;99.90
30063;DHT22;16889;67.864;24.990;2023-04-08T18:35:05;1.80;99.90
30063;DHT22;16889;67.864;24.990;2023-04-08T18:39:51;1.70;99.90
30063;DHT22;16889;67.864;24.990;2023-04-08T18:44:37;1.50;99.90
30063;DHT22;16889;67.864;24.990;2023-04-08T18:49:23;1.50;99.90
30063;DHT22;16889;67.864;24.990;2023-04-08T18:54:09;1.40;99.90
30063;DHT22;16889;67.864;24.990;2023-04-08T18:58:55;1.40;99.90
30063;DHT22;16889;67.864;24.990;2023-04-08T19:03:41;1.40;99.90
30063;DHT22;16889;67.864;24.990;2023-04-08T19:08:30;1.30;99.90
30063;DHT22;16889;67.864;24.990;2023-04-08T19:13:16;1.10;99.90
30063;DHT22;16889;67.864;24.990;2023-04-08T19:18:02;1.00;99.90
30063;DHT22;16889;67.864;24.990;2023-04-08T19:22:48;1.00;99.90
30063;DHT22;16889;67.864;24.990;2023-04-08T19:27:34;0.90;99.90
30063;DHT22;16889;67.864;24.990;2023-04-08T19:32:20;0.70;99.90
30063;DHT22;16889;67.864;24.990;2023-04-08T19:37:06;0.60;99.90
30063;DHT22;16889;67.864;24.990;2023-04-08T19:41:53;0.40;99.90
30063;DHT22;16889;67.864;24.990;2023-04-08T19:46:39;0.30;99.90
30063;DHT22;16889;67.864;24.990;2023-04-08T19:51:25;0.30;99.90
30063;DHT22;16889;67.864;24.990;2023-04-08T19:56:12;0.20;99.90
30063;DHT22;16889;67.864;24.990;2023-04-08T20:00:58;0.10;99.90
30063;DHT22;16889;67.864;24.990;2023-04-08T20:05:47;0.00;99.90
30063;DHT22;16889;67.864;24.990;2023-04-08T20:10:33;-0.10;99.90
30063;DHT22;16889;67.864;24.990;2023-04-08T20:15:20;-0.20;99.90
30063;DHT22;16889;67.864;24.990;2023-04-08T20:20:07;-0.60;99.90
30063;DHT22;16889;67.864;24.990;2023-04-08T20:24:53;-0.70;99.90
30063;DHT22;16889;67.864;24.990;2023-04-08T20:29:39;-0.70;99.90
30063;DHT22;16889;67.864;24.990;2023-04-08T20:34:27;-0.60;99.90
30063;DHT22;16889;67.864;24.990;2023-04-08T20:39:13;-0.80;99.90
30063;DHT22;16889;67.864;24.990;2023-04-08T20:43:59;-0.80;99.90
30063;DHT22;16889;67.864;24.990;2023-04-08T20:48:45;-1.20;99.90
30063;DHT22;16889;67.864;24.990;2023-04-08T20:53:32;-1.30;99.90
30063;DHT22;16889;67.864;24.990;2023-04-08T20:58:19;-1.50;99.90
30063;DHT22;16889;67.864;24.990;2023-04-08T21:03:05;-1.50;99.90
30063;DHT22;16889;67.864;24.990;2023-04-08T21:07:51;-1.40;99.90
30063;DHT22;16889;67.864;24.990;2023-04-08T21:12:37;-1.50;99.90
30063;DHT22;16889;67.864;24.990;2023-04-08T21:17:23;-1.50;99.90
30063;DHT22;16889;67.864;24.990;2023-04-08T21:22:09;-1.50;99.90
30063;DHT22;16889;67.864;24.990;2023-04-08T21:26:56;-1.40;99.90
30063;DHT22;16889;67.864;24.990;2023-04-08T21:31:42;-1.40;99.90
30063;DHT22;16889;67.864;24.990;2023-04-08T21:36:28;-1.40;99.90
30063;DHT22;16889;67.864;24.990;2023-04-08T21:41:15;-1.40;99.90
30063;DHT22;16889;67.864;24.990;2023-04-08T21:46:03;-1.40;99.90
30063;DHT22;16889;67.864;24.990;2023-04-08T21:50:49;-1.40;99.90
30063;DHT22;16889;67.864;24.990;2023-04-08T21:55:35;-1.50;99.90
30063;DHT22;16889;67.864;24.990;2023-04-08T22:00:21;-1.60;99.90
30063;DHT22;16889;67.864;24.990;2023-04-08T22:05:08;-1.60;99.90
30063;DHT22;16889;67.864;24.990;2023-04-08T22:09:54;-1.80;99.90
30063;DHT22;16889;67.864;24.990;2023-04-08T22:14:40;-2.00;99.90
30063;DHT22;16889;67.864;24.990;2023-04-08T22:19:26;-2.30;99.90
30063;DHT22;16889;67.864;24.990;2023-04-08T22:24:12;-2.40;99.90
30063;DHT22;16889;67.864;24.990;2023-04-08T22:28:58;-2.50;99.90
30063;DHT22;16889;67.864;24.990;2023-04-08T22:33:45;-2.70;99.90
30063;DHT22;16889;67.864;24.990;2023-04-08T22:38:31;-3.00;99.90
30063;DHT22;16889;67.864;24.990;2023-04-08T22:43:17;-3.00;99.90
30063;DHT22;16889;67.864;24.990;2023-04-08T22:48:04;-2.90;99.90
30063;DHT22;16889;67.864;24.990;2023-04-08T22:52:50;-2.80;99.90
30063;DHT22;16889;67.864;24.990;2023-04-08T22:57:36;-2.80;99.90
30063;DHT22;16889;67.864;24.990;2023-04-08T23:02:22;-3.30;99.90
30063;DHT22;16889;67.864;24.990;2023-04-08T23:07:07;-3.40;99.90
30063;DHT22;16889;67.864;24.990;2023-04-08T23:11:53;-3.30;99.90
30063;DHT22;16889;67.864;24.990;2023-04-08T23:16:40;-3.20;99.90
30063;DHT22;16889;67.864;24.990;2023-04-08T23:21:26;-3.00;99.90
30063;DHT22;16889;67.864;24.990;2023-04-08T23:26:16;-3.00;99.90
30063;DHT22;16889;67.864;24.990;2023-04-08T23:31:03;-3.10;99.90
30063;DHT22;16889;67.864;24.990;2023-04-08T23:35:50;-3.20;99.90
30063;DHT22;16889;67.864;24.990;2023-04-08T23:40:36;-3.20;99.90
30063;DHT22;16889;67.864;24.990;2023-04-08T23:45:22;-3.20;99.90
30063;DHT22;16889;67.864;24.990;2023-04-08T23:50:08;-3.10;99.90
30063;DHT22;16889;67.864;24.990;2023-04-08T23:54:54;-3.20;99.90
30063;DHT22;16889;67.864;24.990;2023-04-08T23:59:40;-3.30;99.90
